createdAt,value
2018-12-26T00:00:04.231Z,17.50
2018-12-26T00:02:46.844Z,18.13
2018-12-26T00:05:27.826Z,18.07
2018-12-26T00:08:08.459Z,18.83
2018-12-26T00:10:49.058Z,19.13
2018-12-26T00:13:32.881Z,19.03
2018-12-26T00:16:13.362Z,19.17
2018-12-26T00:18:54.121Z,18.47
2018-12-26T00:21:35.255Z,18.60
2018-12-26T00:24:16.175Z,17.10
2018-12-26T00:26:56.903Z,16.60
2018-12-26T00:29:37.486Z,17.17
2018-12-26T00:35:03.495Z,16.27
2018-12-26T00:40:29.267Z,16.67
2018-12-26T00:45:49.235Z,14.90
2018-12-26T00:48:30.064Z,15.57
2018-12-26T00:51:10.819Z,15.50
2018-12-26T00:53:51.890Z,15.80
2018-12-26T00:56:34.213Z,14.10
2018-12-26T00:59:18.442Z,13.63
2018-12-26T01:04:43.215Z,15.30
2018-12-26T01:07:23.447Z,14.77
2018-12-26T01:10:04.114Z,15.03
2018-12-26T01:12:44.672Z,14.63
2018-12-26T01:15:25.531Z,13.83
2018-12-26T01:18:06.191Z,14.40
2018-12-26T01:20:46.872Z,13.87
2018-12-26T01:23:28.506Z,14.03
2018-12-26T01:26:09.455Z,13.57
2018-12-26T01:28:49.737Z,13.57
2018-12-26T01:31:30.504Z,13.93
2018-12-26T01:37:08.488Z,13.03
2018-12-26T01:39:49.239Z,13.37
2018-12-26T01:42:30.372Z,12.87
2018-12-26T01:45:11.354Z,12.90
2018-12-26T01:47:54.475Z,14.03
2018-12-26T01:50:35.443Z,12.87
2018-12-26T01:53:15.775Z,14.03
2018-12-26T01:55:56.833Z,15.23
2018-12-26T01:58:37.226Z,13.53
2018-12-26T02:01:19.092Z,13.87
2018-12-26T02:06:52.215Z,14.07
2018-12-26T02:09:33.223Z,14.77
2018-12-26T02:12:14.346Z,14.23
2018-12-26T02:14:54.957Z,14.13
2018-12-26T02:17:35.418Z,14.23
2018-12-26T02:20:16.300Z,14.90
2018-12-26T02:22:57.935Z,13.87
2018-12-26T02:25:38.891Z,14.50
2018-12-26T02:28:19.587Z,14.27
2018-12-26T02:31:03.538Z,12.97
2018-12-26T02:33:44.842Z,14.37
2018-12-26T02:36:26.093Z,13.67
2018-12-26T02:39:06.998Z,14.40
2018-12-26T02:41:50.802Z,15.17
2018-12-26T02:44:31.167Z,13.67
2018-12-26T02:50:03.611Z,13.97
2018-12-26T02:52:44.207Z,14.03
2018-12-26T02:55:24.775Z,14.70
2018-12-26T02:58:05.922Z,14.10
2018-12-26T03:00:47.567Z,13.67
2018-12-26T03:03:28.512Z,14.63
2018-12-26T03:06:09.564Z,14.43
2018-12-26T03:08:49.746Z,15.73
2018-12-26T03:11:30.374Z,15.53
2018-12-26T03:14:11.824Z,14.27
2018-12-26T03:16:53.013Z,14.67
2018-12-26T03:19:33.746Z,14.47
2018-12-26T03:22:14.308Z,13.80
2018-12-26T03:24:54.958Z,15.80
2018-12-26T03:27:36.757Z,15.70
2018-12-26T03:30:17.700Z,15.53
2018-12-26T03:32:58.538Z,13.43
2018-12-26T03:35:39.294Z,14.73
2018-12-26T03:38:19.839Z,13.97
2018-12-26T03:41:00.406Z,15.47
2018-12-26T03:43:41.856Z,14.77
2018-12-26T03:46:22.858Z,14.13
2018-12-26T03:49:03.844Z,14.47
2018-12-26T03:51:44.702Z,13.03
2018-12-26T03:54:25.298Z,13.67
2018-12-26T03:57:06.755Z,14.63
2018-12-26T03:59:47.238Z,14.63
2018-12-26T04:02:28.206Z,15.63
2018-12-26T04:05:08.863Z,14.83
2018-12-26T04:07:49.533Z,14.07
2018-12-26T04:10:30.685Z,14.50
2018-12-26T04:13:10.994Z,14.37
2018-12-26T04:15:51.582Z,12.73
2018-12-26T04:18:32.729Z,13.07
2018-12-26T04:21:13.385Z,13.93
2018-12-26T04:23:54.919Z,14.37
2018-12-26T04:26:35.730Z,13.87
2018-12-26T04:32:00.759Z,14.07
2018-12-26T04:34:41.765Z,13.27
2018-12-26T04:37:22.639Z,12.80
2018-12-26T04:40:04.129Z,13.67
2018-12-26T04:42:48.195Z,12.37
2018-12-26T04:45:28.507Z,12.63
2018-12-26T04:48:10.131Z,13.13
2018-12-26T04:50:51.258Z,13.40
2018-12-26T04:53:32.021Z,14.33
2018-12-26T04:56:12.581Z,14.03
2018-12-26T04:58:53.948Z,12.97
2018-12-26T05:01:34.391Z,12.93
2018-12-26T05:04:14.581Z,14.07
2018-12-26T05:09:41.627Z,15.50
2018-12-26T05:12:22.672Z,14.40
2018-12-26T05:15:02.948Z,15.87
2018-12-26T05:17:43.432Z,15.87
2018-12-26T05:20:24.819Z,15.40
2018-12-26T05:23:05.573Z,15.53
2018-12-26T05:25:46.682Z,15.63
2018-12-26T05:28:27.013Z,15.07
2018-12-26T05:31:07.822Z,14.73
2018-12-26T05:33:49.322Z,15.17
2018-12-26T05:36:29.815Z,14.97
2018-12-26T05:39:10.214Z,14.10
2018-12-26T05:41:54.975Z,14.83
2018-12-26T05:44:35.787Z,13.40
2018-12-26T05:47:16.773Z,13.73
2018-12-26T05:49:57.554Z,13.73
2018-12-26T05:52:38.190Z,14.07
2018-12-26T05:58:02.616Z,13.43
2018-12-26T06:00:43.180Z,14.97
2018-12-26T06:06:27.626Z,13.80
2018-12-26T06:09:10.039Z,15.10
2018-12-26T06:11:50.310Z,14.50
2018-12-26T06:14:30.981Z,14.37
2018-12-26T06:17:12.804Z,14.27
2018-12-26T06:19:54.065Z,14.57
2018-12-26T06:22:34.858Z,14.27
2018-12-26T06:25:15.440Z,13.00
2018-12-26T06:27:56.145Z,12.87
2018-12-26T06:30:37.014Z,13.53
2018-12-26T06:33:17.721Z,13.43
2018-12-26T06:35:59.343Z,13.90
2018-12-26T06:38:40.122Z,14.83
2018-12-26T06:41:20.895Z,14.07
2018-12-26T06:44:01.688Z,13.53
2018-12-26T06:46:42.378Z,14.70
2018-12-26T06:49:23.099Z,14.43
2018-12-26T06:52:03.861Z,13.33
2018-12-26T06:54:45.437Z,16.30
2018-12-26T06:57:27.366Z,15.63
2018-12-26T07:02:53.632Z,14.97
2018-12-26T07:05:34.230Z,15.97
2018-12-26T07:08:15.071Z,16.00
2018-12-26T07:13:40.628Z,13.00
2018-12-26T07:16:22.263Z,14.67
2018-12-26T07:19:02.718Z,14.07
2018-12-26T07:21:43.487Z,15.57
2018-12-26T07:24:24.246Z,16.60
2018-12-26T07:27:05.181Z,16.97
2018-12-26T07:29:45.639Z,16.43
2018-12-26T07:32:27.914Z,17.00
2018-12-26T07:35:09.009Z,16.67
2018-12-26T07:37:50.865Z,16.07
2018-12-26T07:43:10.678Z,16.20
2018-12-26T07:45:51.606Z,16.87
2018-12-26T07:48:32.318Z,17.57
2018-12-26T07:51:15.270Z,17.00
2018-12-26T07:53:55.771Z,16.23
2018-12-26T07:56:36.483Z,17.30
2018-12-26T07:59:17.057Z,17.77
2018-12-26T08:01:57.942Z,17.57
2018-12-26T08:04:39.503Z,16.60
2018-12-26T08:07:21.361Z,16.07
2018-12-26T08:10:02.248Z,16.00
2018-12-26T08:12:43.288Z,16.87
2018-12-26T08:15:24.314Z,16.20
2018-12-26T08:18:05.224Z,17.37
2018-12-26T08:20:45.948Z,16.80
2018-12-26T08:23:26.776Z,16.90
2018-12-26T08:28:51.155Z,15.43
2018-12-26T08:31:32.122Z,16.27
2018-12-26T08:34:12.959Z,16.63
2018-12-26T08:36:53.852Z,17.13
2018-12-26T08:39:34.598Z,15.43
2018-12-26T08:42:14.933Z,16.07
2018-12-26T08:44:55.719Z,15.93
2018-12-26T08:47:36.942Z,19.00
2018-12-26T08:50:18.503Z,15.47
2018-12-26T08:52:59.771Z,15.50
2018-12-26T08:55:41.130Z,16.50
2018-12-26T08:58:22.566Z,16.50
2018-12-26T09:01:04.022Z,16.30
2018-12-26T09:03:45.369Z,16.33
2018-12-26T09:06:26.572Z,15.53
2018-12-26T09:09:11.285Z,15.93
2018-12-26T09:14:35.828Z,17.33
2018-12-26T09:17:16.130Z,16.33
2018-12-26T09:19:57.073Z,16.60
2018-12-26T09:25:24.165Z,16.50
2018-12-26T09:28:05.689Z,15.30
2018-12-26T09:30:46.871Z,16.57
2018-12-26T09:33:28.101Z,15.93
2018-12-26T09:36:09.274Z,15.33
2018-12-26T09:38:51.157Z,15.40
2018-12-26T09:41:32.376Z,18.80
2018-12-26T09:44:13.485Z,14.73
2018-12-26T09:46:54.911Z,14.57
2018-12-26T09:49:35.434Z,14.10
2018-12-26T09:52:16.963Z,14.77
2018-12-26T09:54:58.706Z,16.10
2018-12-26T09:57:40.495Z,15.60
2018-12-26T10:00:21.995Z,15.63
2018-12-26T10:03:03.454Z,15.30
2018-12-26T10:05:44.963Z,15.30
2018-12-26T10:08:26.606Z,15.43
2018-12-26T10:11:08.414Z,14.30
2018-12-26T10:13:50.886Z,15.37
2018-12-26T10:16:31.297Z,16.33
2018-12-26T10:19:12.127Z,15.07
2018-12-26T10:21:52.497Z,16.27
2018-12-26T10:24:33.420Z,15.20
2018-12-26T10:27:13.881Z,15.60
2018-12-26T10:29:55.333Z,15.43
2018-12-26T10:32:37.226Z,15.77
2018-12-26T10:35:19.303Z,16.43
2018-12-26T10:38:00.177Z,16.43
2018-12-26T10:40:40.955Z,14.97
2018-12-26T10:43:21.682Z,16.20
2018-12-26T10:46:02.435Z,15.53
2018-12-26T10:48:43.873Z,18.53
2018-12-26T10:51:25.668Z,14.83
2018-12-26T10:54:06.339Z,15.80
2018-12-26T10:59:35.622Z,16.47
2018-12-26T11:05:00.154Z,16.50
2018-12-26T11:10:29.126Z,14.97
2018-12-26T11:13:11.158Z,14.43
2018-12-26T11:15:53.215Z,14.63
2018-12-26T11:18:34.079Z,15.73
2018-12-26T11:21:14.808Z,15.83
2018-12-26T11:23:55.656Z,16.00
2018-12-26T11:26:38.237Z,15.60
2018-12-26T11:29:19.240Z,14.13
2018-12-26T11:32:02.593Z,14.47
2018-12-26T11:34:43.347Z,15.07
2018-12-26T11:40:07.663Z,15.03
2018-12-26T11:45:32.403Z,14.77
2018-12-26T11:48:13.714Z,14.90
2018-12-26T11:50:55.485Z,14.07
2018-12-26T11:53:37.303Z,13.37
2018-12-26T11:56:17.841Z,15.53
2018-12-26T11:58:59.028Z,15.77
2018-12-26T12:01:40.295Z,15.50
2018-12-26T12:04:22.439Z,15.27
2018-12-26T12:07:02.989Z,17.47
2018-12-26T12:09:43.549Z,15.57
2018-12-26T12:12:25.179Z,15.10
2018-12-26T12:15:06.506Z,18.07
2018-12-26T12:20:41.867Z,13.93
2018-12-26T12:26:36.504Z,13.87
2018-12-26T12:29:25.225Z,14.80
2018-12-26T12:32:32.179Z,14.00
2018-12-26T12:35:20.255Z,16.33
2018-12-26T12:38:01.267Z,15.90
2018-12-26T12:40:43.014Z,16.43
2018-12-26T12:43:23.563Z,14.83
2018-12-26T12:46:05.841Z,16.03
2018-12-26T12:48:46.906Z,17.00
2018-12-26T12:51:27.511Z,16.43
2018-12-26T12:54:09.212Z,15.87
2018-12-26T12:56:50.817Z,16.40
2018-12-26T12:59:31.739Z,15.13
2018-12-26T13:02:12.640Z,15.30
2018-12-26T13:04:53.938Z,13.73
2018-12-26T13:07:35.640Z,13.53
2018-12-26T13:10:44.406Z,15.10
2018-12-26T13:13:32.186Z,15.40
2018-12-26T13:16:20.307Z,16.87
2018-12-26T13:22:15.943Z,13.70
2018-12-26T13:27:57.135Z,17.17
2018-12-26T13:36:20.361Z,18.23
2018-12-26T13:42:16.648Z,16.00
2018-12-26T13:45:25.130Z,16.20
2018-12-26T13:48:13.751Z,15.50
2018-12-26T13:53:54.992Z,17.20
2018-12-26T13:57:02.204Z,17.43
2018-12-26T13:59:50.208Z,16.90
2018-12-26T14:02:59.030Z,15.17
2018-12-26T14:05:46.834Z,17.23
2018-12-26T14:08:35.229Z,15.83
2018-12-26T14:11:38.331Z,15.40
2018-12-26T14:14:12.526Z,15.97
2018-12-26T14:17:21.468Z,15.73
2018-12-26T14:20:10.507Z,16.47
2018-12-26T14:22:58.277Z,15.73
2018-12-26T14:29:00.047Z,16.30
2018-12-26T14:37:43.658Z,23.70
2018-12-26T14:40:23.975Z,17.90
2018-12-26T14:45:48.614Z,19.93
2018-12-26T14:48:30.137Z,17.97
2018-12-26T14:51:10.554Z,24.63
2018-12-26T14:53:51.318Z,17.67
2018-12-26T14:56:33.299Z,17.27
2018-12-26T14:59:13.734Z,16.43
2018-12-26T15:01:54.474Z,16.33
2018-12-26T15:04:35.406Z,15.90
2018-12-26T15:07:16.308Z,16.87
2018-12-26T15:09:58.080Z,16.63
2018-12-26T15:12:38.697Z,18.87
2018-12-26T15:15:20.120Z,17.90
2018-12-26T15:18:00.693Z,20.43
2018-12-26T15:20:41.945Z,17.87
2018-12-26T15:26:07.050Z,16.53
2018-12-26T15:31:32.303Z,17.37
2018-12-26T15:36:58.882Z,16.50
2018-12-26T15:42:29.287Z,16.57
2018-12-26T15:45:09.702Z,16.37
2018-12-26T15:47:50.689Z,16.53
2018-12-26T15:50:31.000Z,16.87
2018-12-26T15:53:12.078Z,16.17
2018-12-26T15:55:53.741Z,15.17
2018-12-26T15:58:34.869Z,16.20
2018-12-26T16:01:17.233Z,18.33
2018-12-26T16:03:58.946Z,16.17
2018-12-26T16:06:39.104Z,16.87
2018-12-26T16:09:20.862Z,17.30
2018-12-26T16:12:03.047Z,17.90
2018-12-26T16:14:44.591Z,17.47
2018-12-26T16:17:25.190Z,16.90
2018-12-26T16:20:08.356Z,16.90
2018-12-26T16:22:48.584Z,16.37
2018-12-26T16:28:14.723Z,17.33
2018-12-26T16:30:56.816Z,16.10
2018-12-26T16:33:38.190Z,17.00
2018-12-26T16:36:19.742Z,16.33
2018-12-26T16:39:00.303Z,14.87
2018-12-26T16:41:40.981Z,15.07
2018-12-26T16:44:22.822Z,15.60
2018-12-26T16:47:03.477Z,15.93
2018-12-26T16:49:44.036Z,14.83
2018-12-26T16:52:25.990Z,15.47
2018-12-26T16:55:06.796Z,15.77
2018-12-26T16:57:47.629Z,15.47
2018-12-26T17:00:29.261Z,15.07
2018-12-26T17:03:10.392Z,17.07
2018-12-26T17:11:21.874Z,16.13
2018-12-26T17:14:02.762Z,15.13
2018-12-26T17:16:44.704Z,15.47
2018-12-26T17:19:25.347Z,15.10
2018-12-26T17:22:07.442Z,15.07
2018-12-26T17:27:31.268Z,15.70
2018-12-26T17:30:11.877Z,16.83
2018-12-26T17:33:00.618Z,15.80
2018-12-26T17:35:36.809Z,14.77
2018-12-26T17:38:17.951Z,16.13
2018-12-26T17:40:59.029Z,15.17
2018-12-26T17:43:39.959Z,16.13
2018-12-26T17:46:21.993Z,15.70
2018-12-26T17:49:02.835Z,17.07
2018-12-26T17:51:43.383Z,16.00
2018-12-26T17:54:25.031Z,15.13
2018-12-26T17:57:07.736Z,16.67
2018-12-26T17:59:48.891Z,15.87
2018-12-26T18:02:29.779Z,16.30
2018-12-26T18:05:11.064Z,16.10
2018-12-26T18:07:53.409Z,18.10
2018-12-26T18:10:35.847Z,18.03
2018-12-26T18:13:20.782Z,20.27
2018-12-26T18:16:02.094Z,18.33
2018-12-26T18:18:42.889Z,17.80
2018-12-26T18:21:24.540Z,17.67
2018-12-26T18:24:05.686Z,18.60
2018-12-26T18:29:31.224Z,18.10
2018-12-26T18:32:12.432Z,18.03
2018-12-26T18:34:53.395Z,17.07
2018-12-26T18:37:34.498Z,17.43
2018-12-26T18:40:17.505Z,18.67
2018-12-26T18:42:58.532Z,18.53
2018-12-26T18:45:38.767Z,18.17
2018-12-26T18:48:19.985Z,20.53
2018-12-26T18:51:01.801Z,18.27
2018-12-26T18:53:42.295Z,17.70
2018-12-26T18:56:23.393Z,18.17
2018-12-26T18:59:05.330Z,20.53
2018-12-26T19:01:46.370Z,23.93
2018-12-26T19:04:29.209Z,23.07
2018-12-26T19:07:10.509Z,23.90
2018-12-26T19:12:42.618Z,22.33
2018-12-26T19:15:23.142Z,20.97
2018-12-26T19:18:04.237Z,24.27
2018-12-26T19:20:44.765Z,21.83
2018-12-26T19:23:27.458Z,24.10
2018-12-26T19:26:08.940Z,19.27
2018-12-26T19:28:49.425Z,19.87
2018-12-26T19:34:14.607Z,19.17
2018-12-26T19:36:55.183Z,21.87
2018-12-26T19:39:35.895Z,21.80
2018-12-26T19:42:17.700Z,23.70
2018-12-26T19:45:00.263Z,20.20
2018-12-26T19:47:40.595Z,20.50
2018-12-26T19:50:21.278Z,21.37
2018-12-26T19:53:01.751Z,22.20
2018-12-26T19:55:43.442Z,21.13
2018-12-26T19:58:25.369Z,21.40
2018-12-26T20:01:06.038Z,22.97
2018-12-26T20:03:46.787Z,22.50
2018-12-26T20:06:27.492Z,20.90
2018-12-26T20:09:09.425Z,21.10
2018-12-26T20:11:52.008Z,20.03
2018-12-26T20:14:34.414Z,20.20
2018-12-26T20:17:14.809Z,26.13
2018-12-26T20:19:55.477Z,23.57
2018-12-26T20:22:37.097Z,19.17
2018-12-26T20:25:19.185Z,23.50
2018-12-26T20:28:01.173Z,20.63
2018-12-26T20:30:43.165Z,20.07
2018-12-26T20:33:25.130Z,20.27
2018-12-26T20:36:06.346Z,21.00
2018-12-26T20:38:46.906Z,21.33
2018-12-26T20:47:34.191Z,21.77
2018-12-26T20:50:14.979Z,21.90
2018-12-26T20:52:56.928Z,22.13
2018-12-26T20:55:38.369Z,23.67
2018-12-26T21:01:31.414Z,22.43
2018-12-26T21:04:12.202Z,20.37
2018-12-26T21:06:52.935Z,21.00
2018-12-26T21:09:34.034Z,20.83
2018-12-26T21:12:14.694Z,21.17
2018-12-26T21:14:55.338Z,22.17
2018-12-26T21:17:36.229Z,21.13
2018-12-26T21:23:00.927Z,20.40
2018-12-26T21:25:46.748Z,21.97
2018-12-26T21:28:27.860Z,19.93
2018-12-26T21:31:09.345Z,20.17
2018-12-26T21:33:50.771Z,19.80
2018-12-26T21:36:31.902Z,20.40
2018-12-26T21:39:12.942Z,19.13
2018-12-26T21:41:54.895Z,17.63
2018-12-26T21:44:36.306Z,18.03
2018-12-26T21:47:18.207Z,18.60
2018-12-26T21:50:00.993Z,20.40
2018-12-26T21:52:42.905Z,19.10
2018-12-26T21:55:24.533Z,18.70
2018-12-26T21:58:05.787Z,20.37
2018-12-26T22:00:46.419Z,19.70
2018-12-26T22:03:27.361Z,18.43
2018-12-26T22:06:08.083Z,19.37
2018-12-26T22:08:49.775Z,19.60
2018-12-26T22:11:31.083Z,19.70
2018-12-26T22:16:56.269Z,19.20
2018-12-26T22:19:38.048Z,20.50
2018-12-26T22:22:20.147Z,20.63
2018-12-26T22:25:01.425Z,20.10
2018-12-26T22:27:43.362Z,19.50
2018-12-26T22:30:25.050Z,19.80
2018-12-26T22:33:06.406Z,21.60
2018-12-26T22:42:03.295Z,16.77
2018-12-26T22:44:44.659Z,18.67
2018-12-26T22:47:25.358Z,18.43
2018-12-26T22:50:06.054Z,18.20
2018-12-26T22:52:46.378Z,19.93
2018-12-26T22:55:26.946Z,17.63
2018-12-26T22:58:07.792Z,17.03
2018-12-26T23:00:47.924Z,16.97
2018-12-26T23:03:28.558Z,18.13
2018-12-26T23:06:10.154Z,17.90
2018-12-26T23:08:52.127Z,17.20
2018-12-26T23:14:12.991Z,17.47
2018-12-26T23:16:54.066Z,16.03
2018-12-26T23:19:35.033Z,16.77
2018-12-26T23:22:16.141Z,16.13
2018-12-26T23:24:56.658Z,16.80
2018-12-26T23:27:37.302Z,16.23
2018-12-26T23:30:17.885Z,17.40
2018-12-26T23:32:59.054Z,24.13
2018-12-26T23:35:39.703Z,18.83
2018-12-26T23:38:20.522Z,19.80
2018-12-26T23:41:01.310Z,18.17
2018-12-26T23:43:42.327Z,19.67
2018-12-26T23:46:23.941Z,20.07
2018-12-26T23:49:04.834Z,17.87
2018-12-26T23:51:46.330Z,17.70
2018-12-26T23:54:28.035Z,18.33
2018-12-26T23:57:08.904Z,17.80
2018-12-26T23:59:49.987Z,17.30
